createdAt,value
2023-03-06T00:03:17.227Z,-1.39
2023-03-06T00:08:44.798Z,-1.60
2023-03-06T00:14:12.635Z,-1.73
2023-03-06T00:19:40.796Z,-1.88
2023-03-06T00:25:13.306Z,-2.01
2023-03-06T00:30:40.969Z,-2.15
2023-03-06T00:36:08.711Z,-2.20
2023-03-06T00:41:35.835Z,-2.16
2023-03-06T00:47:04.095Z,-2.04
2023-03-06T00:52:32.518Z,-1.76
2023-03-06T00:57:59.956Z,-1.56
2023-03-06T01:03:28.949Z,-1.48
2023-03-06T01:08:57.533Z,-1.41
2023-03-06T01:14:26.381Z,-1.31
2023-03-06T01:19:53.806Z,-1.24
2023-03-06T01:25:20.785Z,-1.12
2023-03-06T01:30:50.757Z,-1.04
2023-03-06T01:36:19.170Z,-0.93
2023-03-06T01:41:47.183Z,-0.79
2023-03-06T01:47:14.631Z,-0.67
2023-03-06T01:52:56.815Z,-0.52
2023-03-06T01:58:24.246Z,-0.45
2023-03-06T02:03:51.971Z,-0.38
2023-03-06T02:09:19.307Z,-0.35
2023-03-06T02:14:48.346Z,-0.31
2023-03-06T02:20:26.894Z,-0.28
2023-03-06T02:25:54.681Z,-0.25
2023-03-06T02:31:25.442Z,-0.20
2023-03-06T02:36:57.613Z,-0.21
2023-03-06T02:42:26.765Z,-0.22
2023-03-06T02:47:55.485Z,-0.27
2023-03-06T02:53:23.459Z,-0.29
2023-03-06T02:58:52.313Z,-0.34
2023-03-06T03:04:21.059Z,-0.27
2023-03-06T03:09:49.209Z,-0.18
2023-03-06T03:15:17.168Z,-0.17
2023-03-06T03:20:44.801Z,-0.15
2023-03-06T03:26:14.971Z,-0.21
2023-03-06T03:31:46.801Z,-0.14
2023-03-06T03:37:14.417Z,-0.07
2023-03-06T03:42:43.145Z,-0.03
2023-03-06T03:48:11.104Z,0.08
2023-03-06T03:53:40.161Z,0.10
2023-03-06T03:59:09.309Z,0.11
2023-03-06T04:04:44.032Z,0.10
2023-03-06T04:10:13.341Z,0.12
2023-03-06T04:15:41.290Z,0.16
2023-03-06T04:21:09.391Z,0.16
2023-03-06T04:26:37.225Z,0.12
2023-03-06T04:32:05.856Z,0.19
2023-03-06T04:37:33.334Z,0.23
2023-03-06T04:43:01.778Z,0.25
2023-03-06T04:48:29.259Z,0.28
2023-03-06T04:53:56.654Z,0.33
2023-03-06T04:59:24.394Z,0.38
2023-03-06T05:04:53.748Z,0.45
2023-03-06T05:10:21.680Z,0.51
2023-03-06T05:15:49.665Z,0.59
2023-03-06T05:21:18.118Z,0.67
2023-03-06T05:26:45.375Z,0.71
2023-03-06T05:32:12.577Z,0.76
2023-03-06T05:37:40.214Z,0.82
2023-03-06T05:43:08.467Z,0.89
2023-03-06T05:48:40.597Z,1.00
2023-03-06T05:54:07.310Z,1.17
2023-03-06T05:59:34.616Z,1.38
2023-03-06T06:05:04.454Z,1.61
2023-03-06T06:10:32.631Z,1.83
2023-03-06T06:15:59.514Z,2.03
2023-03-06T06:21:26.696Z,2.25
2023-03-06T06:26:57.660Z,2.53
2023-03-06T06:32:24.718Z,2.84
2023-03-06T06:37:53.053Z,3.04
2023-03-06T06:43:20.656Z,3.24
2023-03-06T06:48:55.139Z,3.42
2023-03-06T06:54:22.646Z,3.75
2023-03-06T06:59:52.433Z,4.10
2023-03-06T07:05:21.786Z,4.32
2023-03-06T07:10:51.297Z,4.57
2023-03-06T07:16:18.835Z,4.96
2023-03-06T07:21:46.706Z,5.39
2023-03-06T07:27:13.805Z,5.76
2023-03-06T07:32:43.395Z,6.00
2023-03-06T07:38:11.657Z,6.15
2023-03-06T07:43:43.638Z,6.57
2023-03-06T07:49:13.000Z,7.13
2023-03-06T07:54:41.061Z,7.80
2023-03-06T08:00:15.128Z,8.27
2023-03-06T08:05:44.568Z,8.61
2023-03-06T08:11:13.532Z,8.97
2023-03-06T08:16:41.121Z,8.98
2023-03-06T08:22:08.788Z,9.15
2023-03-06T08:27:36.752Z,9.20
2023-03-06T08:33:03.832Z,9.75
2023-03-06T08:38:32.135Z,10.17
2023-03-06T08:44:00.657Z,10.54
2023-03-06T08:49:28.180Z,10.13
2023-03-06T08:54:55.899Z,9.59
2023-03-06T09:00:23.188Z,9.62
2023-03-06T09:05:52.689Z,9.53
2023-03-06T09:11:21.429Z,10.01
2023-03-06T09:16:49.310Z,10.96
2023-03-06T09:22:17.116Z,11.82
2023-03-06T09:27:43.812Z,11.46
2023-03-06T09:33:11.369Z,11.20
2023-03-06T09:38:39.041Z,11.13
2023-03-06T09:44:26.245Z,11.17
2023-03-06T09:50:04.978Z,12.02
2023-03-06T09:55:35.945Z,12.49
2023-03-06T10:01:35.133Z,12.80
2023-03-06T10:07:13.549Z,13.02
2023-03-06T10:19:21.308Z,13.32
2023-03-06T10:24:57.924Z,13.62
2023-03-06T10:30:39.933Z,13.88
2023-03-06T10:36:10.878Z,13.93
2023-03-06T10:41:38.988Z,13.65
2023-03-06T10:47:31.299Z,13.49
2023-03-06T10:53:20.260Z,13.45
2023-03-06T10:58:47.451Z,13.13
2023-03-06T11:04:28.982Z,13.21
2023-03-06T11:09:59.618Z,13.62
2023-03-06T11:15:29.778Z,13.58
2023-03-06T11:20:58.052Z,13.83
2023-03-06T11:26:34.168Z,13.63
2023-03-06T11:32:28.135Z,13.13
2023-03-06T11:38:01.179Z,13.15
2023-03-06T11:43:49.720Z,13.39
2023-03-06T11:49:24.779Z,13.16
2023-03-06T11:54:56.544Z,12.90
2023-03-06T12:01:13.416Z,12.61
2023-03-06T12:06:46.447Z,12.62
2023-03-06T12:12:28.337Z,12.47
2023-03-06T12:18:10.596Z,12.42
2023-03-06T12:23:55.753Z,11.33
2023-03-06T12:29:42.203Z,11.40
2023-03-06T12:35:09.455Z,11.12
2023-03-06T12:40:45.411Z,11.09
2023-03-06T12:46:22.590Z,11.23
2023-03-06T12:51:49.869Z,11.03
2023-03-06T12:57:17.630Z,11.19
2023-03-06T13:02:55.689Z,10.93
2023-03-06T13:08:33.495Z,11.00
2023-03-06T13:14:00.757Z,10.96
2023-03-06T13:19:28.052Z,10.82
2023-03-06T13:25:17.471Z,10.31
2023-03-06T13:30:46.346Z,10.30
2023-03-06T13:36:34.258Z,10.30
2023-03-06T13:42:01.915Z,10.49
2023-03-06T13:47:46.092Z,10.24
2023-03-06T13:53:41.019Z,9.88
2023-03-06T13:59:39.415Z,8.68
2023-03-06T14:05:14.964Z,7.93
2023-03-06T14:10:45.182Z,7.62
2023-03-06T14:16:32.606Z,7.49
2023-03-06T14:22:04.696Z,7.52
2023-03-06T14:27:39.907Z,7.63
2023-03-06T14:33:11.565Z,7.80
2023-03-06T14:38:48.328Z,7.86
2023-03-06T14:44:20.773Z,7.74
2023-03-06T14:49:48.943Z,7.70
2023-03-06T14:55:20.093Z,7.66
2023-03-06T15:00:52.329Z,7.71
2023-03-06T15:06:42.190Z,7.63
2023-03-06T15:12:20.082Z,7.37
2023-03-06T15:17:49.587Z,7.17
2023-03-06T15:23:25.796Z,6.92
2023-03-06T15:29:23.669Z,6.67
2023-03-06T15:35:26.086Z,6.52
2023-03-06T15:41:01.820Z,6.36
2023-03-06T15:46:29.912Z,6.10
2023-03-06T15:51:57.627Z,5.87
2023-03-06T15:57:29.353Z,5.57
2023-03-06T16:02:59.239Z,5.30
2023-03-06T16:08:32.020Z,4.99
2023-03-06T16:14:01.675Z,4.65
2023-03-06T16:19:29.305Z,4.34
2023-03-06T16:24:57.328Z,4.03
2023-03-06T16:30:31.311Z,3.80
2023-03-06T16:35:59.408Z,3.57
2023-03-06T16:41:27.844Z,3.41
2023-03-06T16:46:56.104Z,3.40
2023-03-06T16:52:24.524Z,3.45
2023-03-06T16:57:56.738Z,3.49
2023-03-06T17:03:26.790Z,3.49
2023-03-06T17:09:01.222Z,3.49
2023-03-06T17:14:35.004Z,3.55
2023-03-06T17:20:05.946Z,3.63
2023-03-06T17:25:35.273Z,3.75
2023-03-06T17:31:14.227Z,3.83
2023-03-06T17:36:48.581Z,3.89
2023-03-06T17:42:18.166Z,3.81
2023-03-06T17:47:48.967Z,3.70
2023-03-06T17:53:21.588Z,3.59
2023-03-06T17:58:50.696Z,3.53
2023-03-06T18:04:19.621Z,3.35
2023-03-06T18:09:51.083Z,3.15
2023-03-06T18:15:19.975Z,3.00
2023-03-06T18:20:47.706Z,2.94
2023-03-06T18:26:24.564Z,2.78
2023-03-06T18:31:54.179Z,2.56
2023-03-06T18:37:27.040Z,2.42
2023-03-06T18:42:57.105Z,2.29
2023-03-06T18:48:26.195Z,2.22
2023-03-06T18:53:53.714Z,2.20
2023-03-06T18:59:21.529Z,2.17
2023-03-06T19:04:48.705Z,2.27
2023-03-06T19:10:16.904Z,2.32
2023-03-06T19:15:46.646Z,2.38
2023-03-06T19:21:16.323Z,2.40
2023-03-06T19:26:43.755Z,2.38
2023-03-06T19:32:11.971Z,2.38
2023-03-06T19:37:39.827Z,2.40
2023-03-06T19:43:08.173Z,2.42
2023-03-06T19:48:35.830Z,2.47
2023-03-06T19:54:03.964Z,2.51
2023-03-06T19:59:31.777Z,2.63
2023-03-06T20:04:59.609Z,2.82
2023-03-06T20:10:27.651Z,2.92
2023-03-06T20:15:54.548Z,2.92
2023-03-06T20:21:25.136Z,2.93
2023-03-06T20:26:58.593Z,2.82
2023-03-06T20:32:25.921Z,2.78
2023-03-06T20:37:54.024Z,2.73
2023-03-06T20:43:22.090Z,2.69
2023-03-06T20:48:52.642Z,2.68
2023-03-06T20:54:21.566Z,2.53
2023-03-06T20:59:49.146Z,2.36
2023-03-06T21:05:17.187Z,2.26
2023-03-06T21:10:46.919Z,2.22
2023-03-06T21:16:19.450Z,2.11
2023-03-06T21:21:46.850Z,2.06
2023-03-06T21:27:14.051Z,2.06
2023-03-06T21:32:42.350Z,2.06
2023-03-06T21:38:10.538Z,2.05
2023-03-06T21:43:38.568Z,2.05
2023-03-06T21:49:06.258Z,2.02
2023-03-06T21:54:34.034Z,2.00
2023-03-06T22:00:01.111Z,1.94
2023-03-06T22:05:29.923Z,1.91
2023-03-06T22:10:57.166Z,1.93
2023-03-06T22:16:24.506Z,1.96
2023-03-06T22:21:52.443Z,1.98
2023-03-06T22:27:20.220Z,2.01
2023-03-06T22:32:50.275Z,2.07
2023-03-06T22:38:19.354Z,2.17
2023-03-06T22:43:47.478Z,2.25
2023-03-06T22:49:17.093Z,2.33
2023-03-06T22:54:44.292Z,2.39
2023-03-06T23:00:12.422Z,2.44
2023-03-06T23:05:43.326Z,2.44
2023-03-06T23:11:14.781Z,2.46
2023-03-06T23:17:00.583Z,2.44
2023-03-06T23:22:46.809Z,2.38
2023-03-06T23:28:32.840Z,2.26
2023-03-06T23:34:02.938Z,2.08
2023-03-06T23:39:30.658Z,1.96
2023-03-06T23:44:58.095Z,1.92
2023-03-06T23:50:26.556Z,1.91
2023-03-06T23:55:54.620Z,1.88
